createdAt,value
2019-05-18T00:00:47.228Z,97.78
2019-05-18T00:03:16.098Z,97.55
2019-05-18T00:19:01.549Z,98.81
2019-05-18T00:21:30.403Z,98.75
2019-05-18T00:23:59.609Z,99.26
2019-05-18T00:26:28.453Z,99.21
2019-05-18T00:28:57.342Z,99.12
2019-05-18T00:31:26.196Z,99.07
2019-05-18T00:33:55.040Z,99.34
2019-05-18T00:36:24.258Z,99.59
2019-05-18T00:38:53.142Z,99.66
2019-05-18T00:41:22.524Z,99.55
2019-05-18T00:43:51.433Z,99.57
2019-05-18T00:46:20.217Z,99.89
2019-05-18T00:48:49.186Z,99.62
2019-05-18T00:51:17.951Z,99.52
2019-05-18T00:53:46.866Z,99.47
2019-05-18T00:56:15.674Z,99.62
2019-05-18T00:58:44.686Z,100.00
2019-05-18T01:01:13.493Z,100.00
2019-05-18T01:03:42.417Z,100.00
2019-05-18T01:06:11.421Z,100.00
2019-05-18T01:08:40.259Z,100.00
2019-05-18T01:11:09.254Z,100.00
2019-05-18T01:13:38.211Z,100.00
2019-05-18T01:16:07.182Z,100.00
2019-05-18T01:18:35.993Z,100.00
2019-05-18T01:21:04.932Z,99.97
2019-05-18T01:23:33.825Z,99.80
2019-05-18T01:26:02.994Z,99.72
2019-05-18T01:28:31.809Z,100.00
2019-05-18T01:31:00.762Z,100.00
2019-05-18T01:33:29.584Z,100.00
2019-05-18T01:35:58.374Z,100.00
2019-05-18T01:38:27.180Z,100.00
2019-05-18T01:40:56.089Z,100.00
2019-05-18T01:43:25.006Z,100.00
2019-05-18T01:45:53.972Z,100.00
2019-05-18T01:48:22.934Z,100.00
2019-05-18T01:50:52.057Z,100.00
2019-05-18T01:53:20.993Z,100.00
2019-05-18T01:55:49.822Z,100.00
2019-05-18T01:58:18.684Z,100.00
2019-05-18T02:00:47.517Z,100.00
2019-05-18T02:03:16.321Z,100.00
2019-05-18T02:05:45.204Z,100.00
2019-05-18T02:08:14.258Z,100.00
2019-05-18T02:10:43.173Z,100.00
2019-05-18T02:13:12.194Z,100.00
2019-05-18T02:15:41.040Z,100.00
2019-05-18T02:18:09.928Z,100.00
2019-05-18T02:20:38.857Z,100.00
2019-05-18T02:23:07.735Z,100.00
2019-05-18T02:25:36.672Z,100.00
2019-05-18T02:28:06.476Z,100.00
2019-05-18T02:30:35.424Z,100.00
2019-05-18T02:33:04.423Z,100.00
2019-05-18T02:35:33.436Z,100.00
2019-05-18T02:38:15.749Z,100.00
2019-05-18T02:40:45.729Z,100.00
2019-05-18T02:43:14.811Z,100.00
2019-05-18T02:45:43.743Z,100.00
2019-05-18T02:48:12.746Z,100.00
2019-05-18T02:50:41.755Z,100.00
2019-05-18T02:53:10.678Z,100.00
2019-05-18T02:55:39.646Z,100.00
2019-05-18T02:58:08.615Z,100.00
2019-05-18T03:00:37.461Z,100.00
2019-05-18T03:03:06.645Z,99.85
2019-05-18T03:05:35.615Z,99.80
2019-05-18T03:08:04.589Z,99.77
2019-05-18T03:10:33.514Z,99.70
2019-05-18T03:13:02.451Z,99.39
2019-05-18T03:15:31.303Z,99.11
2019-05-18T03:18:00.309Z,98.97
2019-05-18T03:20:29.312Z,98.77
2019-05-18T03:22:58.258Z,98.66
2019-05-18T03:25:27.085Z,98.98
2019-05-18T03:27:56.024Z,98.94
2019-05-18T03:30:25.184Z,98.94
2019-05-18T03:32:54.151Z,99.15
2019-05-18T03:35:22.994Z,99.46
2019-05-18T03:37:52.091Z,99.48
2019-05-18T03:40:21.040Z,99.59
2019-05-18T03:42:49.845Z,99.78
2019-05-18T03:45:18.887Z,100.00
2019-05-18T03:47:48.209Z,100.00
2019-05-18T03:50:17.095Z,100.00
2019-05-18T03:52:45.940Z,100.00
2019-05-18T03:55:15.808Z,99.78
2019-05-18T03:57:44.623Z,99.88
2019-05-18T04:00:13.702Z,99.94
2019-05-18T04:02:42.475Z,100.00
2019-05-18T04:05:11.345Z,100.00
2019-05-18T04:07:40.467Z,100.00
2019-05-18T04:10:09.689Z,100.00
2019-05-18T04:12:38.755Z,100.00
2019-05-18T04:15:08.050Z,100.00
2019-05-18T04:17:36.924Z,100.00
2019-05-18T04:20:06.063Z,100.00
2019-05-18T04:22:35.098Z,100.00
2019-05-18T04:25:04.006Z,100.00
2019-05-18T04:27:32.826Z,100.00
2019-05-18T04:30:01.646Z,100.00
2019-05-18T04:32:30.434Z,100.00
2019-05-18T04:34:59.362Z,100.00
2019-05-18T04:37:28.262Z,100.00
2019-05-18T04:39:57.204Z,100.00
2019-05-18T04:42:26.038Z,100.00
2019-05-18T04:44:54.835Z,100.00
2019-05-18T04:47:23.701Z,100.00
2019-05-18T04:50:04.669Z,100.00
2019-05-18T04:52:23.197Z,100.00
2019-05-18T04:54:52.013Z,100.00
2019-05-18T04:57:21.062Z,100.00
2019-05-18T04:59:49.889Z,100.00
2019-05-18T05:02:18.751Z,100.00
2019-05-18T05:04:51.467Z,100.00
2019-05-18T05:07:18.541Z,100.00
2019-05-18T05:09:47.364Z,100.00
2019-05-18T05:12:16.351Z,100.00
2019-05-18T05:14:45.286Z,99.66
2019-05-18T05:17:14.108Z,99.63
2019-05-18T05:19:42.928Z,99.17
2019-05-18T05:22:11.822Z,98.77
2019-05-18T05:24:40.638Z,98.55
2019-05-18T05:27:10.775Z,98.46
2019-05-18T05:29:39.568Z,97.90
2019-05-18T05:32:08.368Z,97.33
2019-05-18T05:34:39.453Z,92.58
2019-05-18T05:37:08.364Z,92.58
2019-05-18T05:39:37.216Z,91.43
2019-05-18T05:42:06.257Z,87.50
2019-05-18T05:44:35.108Z,88.71
2019-05-18T05:47:04.150Z,80.96
2019-05-18T05:49:32.938Z,80.77
2019-05-18T05:52:03.088Z,80.59
2019-05-18T05:54:32.000Z,81.19
2019-05-18T05:57:00.859Z,77.00
2019-05-18T05:59:29.938Z,76.59
2019-05-18T06:01:59.029Z,76.59
2019-05-18T06:04:27.879Z,75.22
2019-05-18T06:06:56.667Z,69.50
2019-05-18T06:09:26.813Z,67.88
2019-05-18T06:11:55.644Z,65.20
2019-05-18T06:14:24.540Z,65.17
2019-05-18T06:16:53.431Z,63.47
2019-05-18T06:19:22.345Z,59.36
2019-05-18T06:21:53.255Z,60.83
2019-05-18T06:24:22.064Z,59.71
2019-05-18T06:26:51.044Z,60.13
2019-05-18T06:29:19.890Z,56.96
2019-05-18T06:31:48.728Z,56.35
2019-05-18T06:34:17.636Z,60.52
2019-05-18T06:36:47.427Z,64.42
2019-05-18T06:39:16.308Z,63.67
2019-05-18T06:41:45.093Z,61.78
2019-05-18T06:44:13.894Z,60.13
2019-05-18T06:46:42.678Z,63.30
2019-05-18T06:49:11.594Z,56.19
2019-05-18T06:51:40.427Z,51.17
2019-05-18T06:54:09.297Z,60.86
2019-05-18T06:56:39.396Z,67.04
2019-05-18T06:59:08.588Z,66.10
2019-05-18T07:01:37.546Z,63.73
2019-05-18T07:04:06.425Z,68.60
2019-05-18T07:06:35.202Z,69.29
2019-05-18T07:09:12.917Z,70.31
2019-05-18T07:11:37.533Z,68.82
2019-05-18T07:14:06.344Z,71.35
2019-05-18T07:16:35.106Z,70.32
2019-05-18T07:19:04.106Z,68.68
2019-05-18T07:21:32.979Z,69.87
2019-05-18T07:24:01.793Z,69.12
2019-05-18T07:26:30.757Z,71.91
2019-05-18T07:28:59.707Z,69.08
2019-05-18T07:31:28.783Z,70.89
2019-05-18T07:33:58.596Z,70.45
2019-05-18T07:36:27.704Z,69.10
2019-05-18T07:38:56.557Z,69.24
2019-05-18T07:41:25.466Z,69.12
2019-05-18T07:43:54.462Z,68.56
2019-05-18T07:46:23.573Z,67.03
2019-05-18T07:48:52.584Z,68.76
2019-05-18T07:51:35.082Z,67.67
2019-05-18T07:53:52.289Z,66.68
2019-05-18T07:56:21.081Z,68.67
2019-05-18T07:58:49.929Z,65.73
2019-05-18T08:01:18.855Z,65.68
2019-05-18T08:03:47.688Z,66.43
2019-05-18T08:06:16.655Z,65.03
2019-05-18T08:08:45.710Z,65.25
2019-05-18T08:11:14.608Z,64.88
2019-05-18T08:13:43.558Z,66.10
2019-05-18T08:16:12.450Z,66.63
2019-05-18T08:18:41.503Z,65.88
2019-05-18T08:21:10.688Z,66.33
2019-05-18T08:27:07.914Z,62.92
2019-05-18T08:29:43.315Z,64.67
2019-05-18T08:32:12.474Z,64.92
2019-05-18T08:34:41.693Z,64.74
2019-05-18T08:37:15.239Z,62.11
2019-05-18T08:39:45.595Z,63.06
2019-05-18T08:42:15.332Z,62.72
2019-05-18T08:44:45.215Z,62.48
2019-05-18T08:47:15.605Z,64.72
2019-05-18T08:49:44.415Z,63.69
2019-05-18T08:52:16.538Z,65.20
2019-05-18T08:54:47.056Z,64.44
2019-05-18T09:06:59.541Z,58.65
2019-05-18T09:09:28.453Z,59.56
2019-05-18T09:11:57.365Z,60.22
2019-05-18T09:14:26.413Z,59.68
2019-05-18T09:16:55.460Z,61.24
2019-05-18T09:19:24.311Z,62.61
2019-05-18T09:21:53.103Z,63.28
2019-05-18T09:24:22.466Z,59.24
2019-05-18T09:26:52.254Z,59.01
2019-05-18T09:29:21.922Z,58.23
2019-05-18T09:31:55.042Z,58.42
2019-05-18T09:34:25.023Z,59.62
2019-05-18T09:36:54.558Z,59.80
2019-05-18T09:39:27.036Z,61.13
2019-05-18T09:42:30.091Z,62.02
2019-05-18T09:45:22.596Z,57.61
2019-05-18T09:47:53.103Z,58.44
2019-05-18T09:50:40.813Z,58.08
2019-05-18T09:53:09.756Z,58.91
2019-05-18T09:55:38.620Z,58.81
2019-05-18T09:58:07.621Z,59.64
2019-05-18T10:00:39.112Z,57.82
2019-05-18T10:03:07.799Z,55.76
2019-05-18T10:05:36.731Z,55.99
2019-05-18T10:08:05.720Z,56.33
2019-05-18T10:10:34.678Z,55.07
2019-05-18T10:13:03.563Z,54.96
2019-05-18T10:15:32.536Z,54.89
2019-05-18T10:18:01.384Z,57.46
2019-05-18T10:20:30.256Z,53.73
2019-05-18T10:23:11.918Z,53.89
2019-05-18T10:25:29.769Z,52.86
2019-05-18T10:27:58.689Z,49.19
2019-05-18T10:30:27.700Z,49.91
2019-05-18T10:32:56.647Z,49.24
2019-05-18T10:35:25.886Z,50.74
2019-05-18T10:37:54.667Z,50.62
2019-05-18T10:40:23.522Z,49.78
2019-05-18T10:42:52.434Z,52.36
2019-05-18T10:45:21.525Z,50.26
2019-05-18T10:47:50.410Z,50.19
2019-05-18T10:50:20.731Z,51.58
2019-05-18T10:52:49.741Z,48.89
2019-05-18T10:55:19.088Z,51.20
2019-05-18T10:57:47.894Z,50.46
2019-05-18T11:00:18.332Z,48.13
2019-05-18T11:02:47.141Z,50.99
2019-05-18T11:05:16.274Z,49.54
2019-05-18T11:07:45.107Z,48.00
2019-05-18T11:10:14.489Z,47.78
2019-05-18T11:12:43.393Z,47.90
2019-05-18T11:15:13.844Z,47.16
2019-05-18T11:17:42.784Z,45.65
2019-05-18T11:20:13.087Z,47.56
2019-05-18T11:22:42.171Z,47.67
2019-05-18T11:25:11.275Z,46.79
2019-05-18T11:27:40.097Z,48.51
2019-05-18T11:30:10.274Z,49.24
2019-05-18T11:32:39.363Z,49.17
2019-05-18T11:35:09.218Z,48.82
2019-05-18T11:37:38.132Z,48.54
2019-05-18T11:40:07.270Z,49.31
2019-05-18T11:42:36.156Z,49.06
2019-05-18T11:45:06.015Z,48.05
2019-05-18T11:47:34.994Z,46.71
2019-05-18T11:50:04.272Z,45.42
2019-05-18T11:52:33.121Z,47.81
2019-05-18T11:55:02.146Z,45.99
2019-05-18T11:57:30.910Z,46.85
2019-05-18T11:59:59.722Z,46.34
2019-05-18T12:02:28.508Z,47.97
2019-05-18T12:04:57.418Z,45.78
2019-05-18T12:07:26.737Z,47.01
2019-05-18T12:09:55.957Z,46.39
2019-05-18T12:12:26.383Z,47.21
2019-05-18T12:14:56.624Z,47.94
2019-05-18T12:17:25.977Z,46.08
2019-05-18T12:19:55.042Z,50.46
2019-05-18T12:22:24.137Z,54.91
2019-05-18T12:25:09.393Z,55.56
2019-05-18T12:27:57.902Z,48.87
2019-05-18T12:30:26.334Z,46.58
2019-05-18T12:32:57.386Z,45.88
2019-05-18T12:35:26.558Z,48.22
2019-05-18T12:37:55.340Z,49.03
2019-05-18T12:40:24.853Z,47.89
2019-05-18T12:42:54.267Z,47.69
2019-05-18T12:45:23.989Z,47.66
2019-05-18T12:47:52.848Z,47.12
2019-05-18T12:50:22.747Z,46.50
2019-05-18T12:52:51.841Z,44.72
2019-05-18T12:55:23.706Z,46.33
2019-05-18T12:57:52.594Z,43.25
2019-05-18T13:00:21.910Z,45.05
2019-05-18T13:02:50.795Z,41.38
2019-05-18T13:05:20.236Z,41.49
2019-05-18T13:07:49.288Z,42.06
2019-05-18T13:10:19.554Z,43.04
2019-05-18T13:12:48.702Z,40.85
2019-05-18T13:15:18.397Z,43.20
2019-05-18T13:17:47.630Z,41.65
2019-05-18T13:20:17.333Z,43.12
2019-05-18T13:22:47.372Z,41.93
2019-05-18T13:25:16.852Z,38.50
2019-05-18T13:27:46.003Z,38.63
2019-05-18T13:30:19.596Z,39.99
2019-05-18T13:32:46.541Z,39.32
2019-05-18T13:35:15.769Z,40.40
2019-05-18T13:37:44.701Z,39.89
2019-05-18T13:40:14.637Z,39.15
2019-05-18T13:42:43.721Z,39.84
2019-05-18T13:45:14.580Z,39.96
2019-05-18T13:47:43.647Z,39.89
2019-05-18T13:50:14.982Z,38.05
2019-05-18T13:52:43.936Z,40.11
2019-05-18T13:55:14.542Z,39.74
2019-05-18T13:57:43.580Z,40.20
2019-05-18T14:00:12.934Z,40.24
2019-05-18T14:02:42.056Z,40.95
2019-05-18T14:05:11.840Z,40.08
2019-05-18T14:07:40.830Z,40.49
2019-05-18T14:10:12.673Z,39.40
2019-05-18T14:12:41.083Z,40.50
2019-05-18T14:15:10.755Z,40.46
2019-05-18T14:17:39.738Z,39.93
2019-05-18T14:20:13.459Z,44.60
2019-05-18T14:22:42.541Z,51.26
2019-05-18T14:25:19.283Z,52.41
2019-05-18T14:27:42.204Z,53.18
2019-05-18T14:30:11.811Z,53.32
2019-05-18T14:32:40.987Z,54.67
2019-05-18T14:35:10.122Z,55.06
2019-05-18T14:37:39.415Z,53.86
2019-05-18T14:40:09.356Z,54.62
2019-05-18T14:42:47.506Z,55.04
2019-05-18T14:45:16.680Z,55.01
2019-05-18T14:47:45.769Z,54.00
2019-05-18T14:50:16.458Z,54.84
2019-05-18T14:52:45.625Z,55.15
2019-05-18T14:55:14.785Z,56.02
2019-05-18T14:57:44.027Z,56.41
2019-05-18T15:00:14.098Z,57.35
2019-05-18T15:02:43.027Z,58.91
2019-05-18T15:05:12.332Z,58.76
2019-05-18T15:07:41.368Z,55.24
2019-05-18T15:10:10.831Z,53.95
2019-05-18T15:12:39.760Z,52.52
2019-05-18T15:15:09.469Z,53.78
2019-05-18T15:17:38.932Z,53.34
2019-05-18T15:20:08.777Z,53.83
2019-05-18T15:22:37.744Z,53.12
2019-05-18T15:25:07.232Z,53.09
2019-05-18T15:27:40.085Z,51.77
2019-05-18T15:30:09.739Z,52.30
2019-05-18T15:32:38.926Z,51.16
2019-05-18T15:35:08.559Z,52.10
2019-05-18T15:37:37.638Z,51.47
2019-05-18T15:40:08.570Z,52.30
2019-05-18T15:42:37.443Z,53.71
2019-05-18T15:45:06.686Z,53.83
2019-05-18T15:47:35.557Z,54.61
2019-05-18T15:50:04.698Z,54.76
2019-05-18T15:52:33.622Z,55.04
2019-05-18T15:55:02.568Z,54.99
2019-05-18T15:57:31.419Z,54.15
2019-05-18T16:00:00.291Z,54.00
2019-05-18T16:02:29.178Z,52.68
2019-05-18T16:04:58.041Z,49.96
2019-05-18T16:07:26.967Z,49.53
2019-05-18T16:09:55.855Z,49.68
2019-05-18T16:12:24.726Z,51.53
2019-05-18T16:15:29.268Z,51.79
2019-05-18T16:17:58.617Z,52.35
2019-05-18T16:20:27.412Z,52.96
2019-05-18T16:22:56.315Z,52.83
2019-05-18T16:25:25.132Z,51.63
2019-05-18T16:27:54.250Z,48.73
2019-05-18T16:30:23.496Z,51.01
2019-05-18T16:32:52.567Z,51.47
2019-05-18T16:35:22.162Z,49.36
2019-05-18T16:37:53.018Z,50.27
2019-05-18T16:40:22.196Z,51.84
2019-05-18T16:42:51.105Z,53.61
2019-05-18T16:45:22.564Z,53.83
2019-05-18T16:47:51.466Z,54.02
2019-05-18T16:50:20.908Z,53.98
2019-05-18T16:52:49.897Z,54.34
2019-05-18T16:55:18.854Z,55.70
2019-05-18T16:57:47.830Z,55.83
2019-05-18T17:00:17.121Z,57.29
2019-05-18T17:02:46.000Z,57.46
2019-05-18T17:05:15.613Z,57.63
2019-05-18T17:07:44.735Z,57.13
2019-05-18T17:10:15.540Z,57.69
2019-05-18T17:12:44.641Z,59.27
2019-05-18T17:15:13.833Z,58.08
2019-05-18T17:17:44.275Z,56.72
2019-05-18T17:20:16.195Z,57.63
2019-05-18T17:22:45.209Z,59.08
2019-05-18T17:25:15.023Z,60.28
2019-05-18T17:27:43.876Z,60.45
2019-05-18T17:30:12.826Z,59.33
2019-05-18T17:32:42.699Z,61.18
2019-05-18T17:35:12.488Z,61.00
2019-05-18T17:37:41.342Z,61.95
2019-05-18T17:40:10.574Z,61.02
2019-05-18T17:42:39.526Z,61.64
2019-05-18T17:45:09.324Z,62.33
2019-05-18T17:47:38.340Z,61.07
2019-05-18T17:50:09.381Z,61.80
2019-05-18T17:52:38.424Z,63.45
2019-05-18T17:55:08.063Z,62.69
2019-05-18T17:57:36.954Z,63.47
2019-05-18T18:00:06.769Z,65.06
2019-05-18T18:02:35.581Z,65.58
2019-05-18T18:05:04.824Z,66.49
2019-05-18T18:07:33.942Z,66.90
2019-05-18T18:10:02.895Z,67.66
2019-05-18T18:12:31.822Z,67.97
2019-05-18T18:15:00.802Z,69.12
2019-05-18T18:17:29.622Z,69.26
2019-05-18T18:19:58.880Z,68.27
2019-05-18T18:22:27.743Z,68.16
2019-05-18T18:24:56.634Z,68.15
2019-05-18T18:27:29.280Z,68.66
2019-05-18T18:29:56.245Z,69.92
2019-05-18T18:35:53.809Z,70.67
2019-05-18T18:38:22.635Z,70.66
2019-05-18T18:40:51.670Z,71.07
2019-05-18T18:43:20.761Z,71.41
2019-05-18T18:45:49.561Z,71.61
2019-05-18T18:48:18.458Z,72.26
2019-05-18T18:50:47.372Z,72.46
2019-05-18T18:53:16.310Z,72.58
2019-05-18T18:55:45.576Z,73.23
2019-05-18T18:58:14.411Z,73.20
2019-05-18T19:00:43.521Z,73.58
2019-05-18T19:03:12.473Z,73.74
2019-05-18T19:05:41.290Z,73.77
2019-05-18T19:08:10.225Z,74.03
2019-05-18T19:10:39.299Z,74.19
2019-05-18T19:13:08.106Z,74.16
2019-05-18T19:15:37.141Z,74.27
2019-05-18T19:18:05.936Z,74.98
2019-05-18T19:20:34.748Z,74.66
2019-05-18T19:23:03.754Z,74.92
2019-05-18T19:25:32.975Z,75.61
2019-05-18T19:28:01.837Z,76.00
2019-05-18T19:30:30.630Z,76.12
2019-05-18T19:32:59.670Z,76.33
2019-05-18T19:35:28.749Z,76.25
2019-05-18T19:37:58.033Z,76.93
2019-05-18T19:40:27.056Z,77.07
2019-05-18T19:42:56.039Z,77.51
2019-05-18T19:45:25.247Z,77.91
2019-05-18T19:47:54.204Z,78.21
2019-05-18T19:50:22.968Z,77.95
2019-05-18T19:52:51.930Z,77.93
2019-05-18T19:55:20.856Z,78.59
2019-05-18T19:57:49.794Z,78.76
2019-05-18T20:00:19.856Z,78.08
2019-05-18T20:02:49.982Z,79.05
2019-05-18T20:05:18.950Z,79.13
2019-05-18T20:07:47.739Z,79.57
2019-05-18T20:10:17.082Z,79.08
2019-05-18T20:12:46.561Z,79.06
2019-05-18T20:15:15.712Z,80.82
2019-05-18T20:17:44.547Z,79.97
2019-05-18T20:20:14.930Z,81.10
2019-05-18T20:22:43.959Z,80.83
2019-05-18T20:25:13.317Z,81.67
2019-05-18T20:27:42.597Z,81.65
2019-05-18T20:30:11.907Z,82.18
2019-05-18T20:35:18.968Z,82.83
2019-05-18T20:37:48.158Z,82.79
2019-05-18T20:40:17.382Z,83.26
2019-05-18T20:42:46.207Z,83.54
2019-05-18T20:45:15.238Z,84.00
2019-05-18T20:47:44.133Z,84.24
2019-05-18T20:50:14.797Z,83.86
2019-05-18T20:52:44.103Z,84.25
2019-05-18T20:55:13.324Z,83.83
2019-05-18T20:57:42.095Z,84.72
2019-05-18T21:00:11.095Z,84.33
2019-05-18T21:02:39.874Z,84.92
2019-05-18T21:05:10.276Z,86.15
2019-05-18T21:07:39.090Z,85.43
2019-05-18T21:10:08.198Z,85.10
2019-05-18T21:12:37.016Z,85.27
2019-05-18T21:15:06.983Z,85.58
2019-05-18T21:17:36.105Z,86.21
2019-05-18T21:20:06.074Z,86.67
2019-05-18T21:22:35.005Z,87.02
2019-05-18T21:25:04.258Z,86.71
2019-05-18T21:27:33.029Z,87.11
2019-05-18T21:30:01.843Z,87.22
2019-05-18T21:32:30.959Z,87.33
2019-05-18T21:34:59.834Z,87.28
2019-05-18T21:37:28.647Z,87.61
2019-05-18T21:39:58.400Z,87.52
2019-05-18T21:42:27.206Z,87.82
2019-05-18T21:44:56.079Z,88.62
2019-05-18T21:47:25.356Z,87.90
2019-05-18T21:49:54.322Z,88.25
2019-05-18T21:52:23.527Z,88.75
2019-05-18T21:54:52.474Z,89.36
2019-05-18T21:57:21.761Z,88.95
2019-05-18T21:59:50.550Z,89.34
2019-05-18T22:02:19.488Z,90.08
2019-05-18T22:04:48.472Z,90.22
2019-05-18T22:07:17.302Z,90.43
2019-05-18T22:09:46.736Z,90.42
2019-05-18T22:12:15.642Z,90.59
2019-05-18T22:14:44.436Z,91.05
2019-05-18T22:17:13.475Z,91.05
2019-05-18T22:19:42.494Z,90.65
2019-05-18T22:22:11.476Z,91.06
2019-05-18T22:24:40.596Z,91.79
2019-05-18T22:27:09.531Z,91.79
2019-05-18T22:29:38.430Z,91.31
2019-05-18T22:32:07.516Z,91.41
2019-05-18T22:34:36.353Z,91.67
2019-05-18T22:37:05.280Z,91.97
2019-05-18T22:39:34.304Z,91.93
2019-05-18T22:42:03.328Z,92.78
2019-05-18T22:44:32.178Z,92.47
2019-05-18T22:47:01.596Z,92.47
2019-05-18T22:49:30.530Z,92.40
2019-05-18T22:51:59.639Z,92.49
2019-05-18T22:54:28.596Z,93.02
2019-05-18T22:56:57.423Z,93.34
2019-05-18T22:59:26.335Z,93.38
2019-05-18T23:01:55.264Z,93.25
2019-05-18T23:04:24.063Z,92.77
2019-05-18T23:06:52.873Z,92.53
2019-05-18T23:09:21.891Z,93.94
2019-05-18T23:11:50.695Z,94.40
2019-05-18T23:14:19.542Z,94.40
2019-05-18T23:16:48.345Z,95.23
2019-05-18T23:19:17.331Z,95.17
2019-05-18T23:21:46.189Z,94.73
2019-05-18T23:24:16.493Z,94.62
2019-05-18T23:26:45.323Z,94.66
2019-05-18T23:29:14.398Z,94.83
2019-05-18T23:31:43.244Z,95.77
2019-05-18T23:34:12.070Z,95.57
2019-05-18T23:36:41.091Z,96.23
2019-05-18T23:39:09.963Z,96.36
2019-05-18T23:41:38.751Z,96.71
2019-05-18T23:44:07.647Z,97.29
2019-05-18T23:46:36.801Z,97.44
2019-05-18T23:49:10.789Z,97.57
2019-05-18T23:51:36.627Z,97.66
2019-05-18T23:54:05.972Z,97.99
2019-05-18T23:56:34.869Z,98.24
2019-05-18T23:59:03.849Z,98.39
